Time;durP1;ratioP1;P1;durP2;ratioP2;P2;SDS_P1;SDS_P2;PMS_P1;PMS_P2;Temp;Humidity;BMP_temperature;BMP_pressure;BME280_temperature;BME280_humidity;BME280_pressure;Samples;Min_cycle;Max_cycle;Signal;HPM_P1;HPM_P2
2020/12/08 00:01:49;;;;;;;38.33;20.58;;;;;;;1.58;98.58;98713.28;6191579;23;20036;-73
2020/12/08 00:04:15;;;;;;;41.50;20.63;;;;;;;1.54;98.48;98708.38;6191650;23;20076;-73
2020/12/08 00:06:41;;;;;;;35.67;19.27;;;;;;;1.51;98.56;98721.81;6164770;23;20015;-73
2020/12/08 00:09:06;;;;;;;37.28;20.55;;;;;;;1.49;98.47;98719.34;6164981;23;20490;-73
2020/12/08 00:11:32;;;;;;;33.85;18.63;;;;;;;1.46;98.36;98727.28;6165073;23;20009;-73
2020/12/08 00:13:57;;;;;;;31.42;19.20;;;;;;;1.42;98.18;98727.03;6191676;23;20012;-73
2020/12/08 00:16:23;;;;;;;33.35;18.58;;;;;;;1.39;98.21;98730.28;6164693;23;20016;-73
2020/12/08 00:18:48;;;;;;;37.03;19.75;;;;;;;1.36;98.06;98732.78;6189727;23;20001;-73
2020/12/08 00:21:14;;;;;;;33.90;18.75;;;;;;;1.30;98.06;98729.22;6140029;23;20016;-73
2020/12/08 00:23:39;;;;;;;32.28;18.48;;;;;;;1.27;98.01;98735.25;6140401;23;20005;-73
2020/12/08 00:26:05;;;;;;;31.23;18.05;;;;;;;1.23;98.01;98729.53;6139312;23;20324;-73
2020/12/08 00:28:32;;;;;;;31.30;18.38;;;;;;;1.18;97.91;98739.66;6130117;23;20010;-73
2020/12/08 00:30:58;;;;;;;34.50;18.30;;;;;;;1.13;97.78;98739.66;6131229;23;20388;-73
2020/12/08 00:33:23;;;;;;;34.95;18.40;;;;;;;1.09;97.85;98739.41;6130575;23;20022;-73
2020/12/08 00:35:49;;;;;;;34.22;18.80;;;;;;;1.04;97.85;98731.19;6131235;23;20006;-73
2020/12/08 00:38:15;;;;;;;32.83;17.13;;;;;;;1.01;97.72;98735.28;6131677;23;20017;-73
2020/12/08 00:40:40;;;;;;;32.60;17.92;;;;;;;0.97;97.72;98741.56;6105707;23;20009;-73
2020/12/08 00:43:07;;;;;;;34.72;18.52;;;;;;;0.91;97.96;98740.75;6132102;23;20017;-73
2020/12/08 00:45:33;;;;;;;30.88;16.02;;;;;;;0.89;97.61;98745.66;6129963;23;20009;-73
2020/12/08 00:47:59;;;;;;;28.25;16.45;;;;;;;0.84;97.43;98742.97;6130089;23;20045;-73
2020/12/08 00:50:24;;;;;;;30.48;17.42;;;;;;;0.81;97.34;98748.97;6131657;23;20013;-73
2020/12/08 00:52:50;;;;;;;31.73;17.45;;;;;;;0.76;97.33;98751.69;6131764;23;20327;-73
2020/12/08 00:55:15;;;;;;;28.92;16.60;;;;;;;0.71;97.36;98757.97;6129482;23;20018;-73
2020/12/08 00:57:41;;;;;;;34.08;18.77;;;;;;;0.68;97.46;98754.97;6130046;23;20014;-73
2020/12/08 01:00:06;;;;;;;31.17;17.85;;;;;;;0.64;97.64;98760.13;6131881;23;20458;-73
2020/12/08 01:02:32;;;;;;;30.27;17.25;;;;;;;0.60;97.97;98768.06;6131678;23;20002;-73
2020/12/08 01:04:58;;;;;;;27.33;16.73;;;;;;;0.57;97.73;98771.34;6105731;23;20006;-73
2020/12/08 01:07:23;;;;;;;29.05;17.83;;;;;;;0.55;97.88;98776.25;6131168;23;20060;-73
2020/12/08 01:09:49;;;;;;;30.67;16.55;;;;;;;0.51;97.92;98777.91;6129194;23;20388;-73
2020/12/08 01:12:14;;;;;;;28.35;17.20;;;;;;;0.47;97.76;98784.97;6131804;23;20006;-73
2020/12/08 01:14:40;;;;;;;29.60;17.08;;;;;;;0.45;97.86;98787.19;6130184;23;20419;-73
2020/12/08 01:17:06;;;;;;;28.63;16.65;;;;;;;0.40;97.85;98779.78;6131431;23;20044;-73
2020/12/08 01:19:31;;;;;;;32.22;17.55;;;;;;;0.39;97.91;98788.22;6130038;23;20002;-73
2020/12/08 01:21:57;;;;;;;28.48;16.48;;;;;;;0.35;97.77;98792.59;6105639;23;20327;-73
2020/12/08 01:24:22;;;;;;;27.38;16.50;;;;;;;0.33;97.78;98792.03;6081012;23;20006;-73
2020/12/08 01:26:48;;;;;;;26.90;15.88;;;;;;;0.31;97.58;98794.25;6188700;23;20065;-73
2020/12/08 01:29:13;;;;;;;27.45;15.85;;;;;;;0.28;97.85;98800.22;6164358;23;20008;-73
2020/12/08 01:31:39;;;;;;;29.00;16.33;;;;;;;0.26;97.75;98803.22;6163596;23;20009;-73
2020/12/08 01:34:07;;;;;;;26.08;15.73;;;;;;;0.23;97.72;98801.03;6190408;23;20330;-73
2020/12/08 01:36:32;;;;;;;26.30;15.70;;;;;;;0.18;97.60;98796.38;6190127;23;20055;-73
2020/12/08 01:38:58;;;;;;;28.00;16.00;;;;;;;0.16;97.70;98798.53;6163988;23;20009;-73
2020/12/08 01:41:23;;;;;;;27.73;16.38;;;;;;;0.15;97.56;98807.84;6164649;23;20437;-73
2020/12/08 01:43:50;;;;;;;27.38;16.30;;;;;;;0.11;97.42;98805.91;6190166;23;20016;-73
2020/12/08 01:46:17;;;;;;;28.10;15.90;;;;;;;0.08;97.55;98804.50;6139493;23;20009;-73
2020/12/08 01:48:43;;;;;;;26.35;15.75;;;;;;;0.06;97.37;98803.16;6190306;23;20080;-73
2020/12/08 01:51:09;;;;;;;27.38;15.63;;;;;;;0.03;97.40;98814.59;6139825;23;20005;-73
2020/12/08 01:53:35;;;;;;;25.65;15.32;;;;;;;-0.01;97.50;98815.13;6164084;23;20016;-73
2020/12/08 01:56:00;;;;;;;24.55;14.25;;;;;;;-0.03;97.62;98822.78;6163707;23;20009;-73
2020/12/08 01:58:26;;;;;;;25.17;15.05;;;;;;;-0.07;97.37;98838.03;6190399;23;20036;-73
2020/12/08 02:00:51;;;;;;;24.42;14.73;;;;;;;-0.07;97.43;98848.13;6190632;23;20016;-73
2020/12/08 02:03:17;;;;;;;24.77;14.95;;;;;;;-0.11;97.23;98836.94;6190354;23;20013;-73
2020/12/08 02:05:46;;;;;;;26.65;14.93;;;;;;;-0.13;97.38;98843.75;6163681;23;20005;-73
2020/12/08 02:08:11;;;;;;;24.08;15.93;;;;;;;-0.15;97.26;98849.44;6190391;23;20081;-73
2020/12/08 02:10:37;;;;;;;26.02;15.00;;;;;;;-0.18;97.30;98846.44;6189958;23;20009;-73
2020/12/08 02:13:07;;;;;;;27.85;16.05;;;;;;;-0.20;97.42;98852.16;6139351;23;20009;-73
2020/12/08 02:15:33;;;;;;;26.35;15.43;;;;;;;-0.21;97.51;98858.69;6163992;23;20057;-73
2020/12/08 02:17:59;;;;;;;25.20;14.95;;;;;;;-0.24;97.42;98860.03;6190223;23;20453;-73
2020/12/08 02:20:25;;;;;;;27.15;15.90;;;;;;;-0.25;97.57;98872.06;6164152;23;20426;-73
2020/12/08 02:22:55;;;;;;;25.45;14.48;;;;;;;-0.28;97.59;98867.13;6189750;23;20005;-73
2020/12/08 02:25:21;;;;;;;26.02;14.85;;;;;;;-0.29;97.39;98873.66;6189248;23;20021;-73
2020/12/08 02:27:46;;;;;;;24.77;15.15;;;;;;;-0.30;97.54;98873.94;6163640;23;20008;-73
2020/12/08 02:30:12;;;;;;;23.08;14.32;;;;;;;-0.32;97.50;98890.53;6189625;23;20005;-73
2020/12/08 02:32:38;;;;;;;25.23;15.30;;;;;;;-0.34;97.39;98884.53;6163646;23;20422;-73
2020/12/08 02:35:03;;;;;;;24.05;14.38;;;;;;;-0.34;97.40;98887.25;6114747;23;20426;-73
2020/12/08 02:37:29;;;;;;;23.45;15.10;;;;;;;-0.37;97.54;98882.31;6163542;23;20005;-73
2020/12/08 02:39:54;;;;;;;22.27;14.63;;;;;;;-0.37;97.50;98890.50;6163353;23;20001;-73
2020/12/08 02:42:20;;;;;;;27.73;15.45;;;;;;;-0.40;97.70;98891.03;6163590;23;20083;-73
2020/12/08 02:44:45;;;;;;;23.20;14.38;;;;;;;-0.38;97.56;98910.69;6163608;23;20013;-73
2020/12/08 02:47:11;;;;;;;25.98;14.63;;;;;;;-0.37;97.64;98904.13;6163456;23;20009;-73
2020/12/08 02:49:36;;;;;;;25.45;16.25;;;;;;;-0.35;97.91;98901.16;6163783;23;20005;-73
2020/12/08 02:52:02;;;;;;;26.10;15.93;;;;;;;-0.33;98.01;98905.28;6163479;23;20005;-73
2020/12/08 02:54:28;;;;;;;28.42;16.33;;;;;;;-0.31;98.32;98905.00;6189216;23;20434;-73
2020/12/08 02:56:53;;;;;;;25.88;15.27;;;;;;;-0.28;98.29;98909.94;6189619;23;20005;-73
2020/12/08 02:59:19;;;;;;;27.95;16.42;;;;;;;-0.27;98.43;98906.94;6163866;23;20008;-73
2020/12/08 03:01:44;;;;;;;24.70;14.55;;;;;;;-0.23;98.49;98912.69;6189741;23;20009;-73
2020/12/08 03:04:10;;;;;;;26.58;15.25;;;;;;;-0.20;98.48;98919.53;6189732;23;20004;-73
2020/12/08 03:06:41;;;;;;;28.35;15.88;;;;;;;-0.17;98.57;98913.56;6163199;23;20013;-73
2020/12/08 03:09:06;;;;;;;28.02;16.52;;;;;;;-0.13;98.54;98914.69;6163076;23;20005;-73
2020/12/08 03:11:32;;;;;;;25.67;14.25;;;;;;;-0.12;98.47;98908.94;6189753;23;20009;-73
2020/12/08 03:13:57;;;;;;;28.85;15.63;;;;;;;-0.08;98.54;98906.53;6163297;23;20383;-73
2020/12/08 03:16:23;;;;;;;28.30;16.17;;;;;;;-0.05;98.75;98908.75;6163224;23;20013;-73
2020/12/08 03:18:49;;;;;;;24.05;15.40;;;;;;;-0.04;98.63;98913.91;6163644;23;20307;-73
2020/12/08 03:21:14;;;;;;;25.38;14.98;;;;;;;0.01;98.70;98913.13;6189623;23;20005;-73
2020/12/08 03:23:40;;;;;;;26.55;14.85;;;;;;;0.04;98.64;98904.41;6189422;23;20415;-73
2020/12/08 03:26:05;;;;;;;24.52;15.23;;;;;;;0.05;98.57;98911.50;6113505;23;20030;-73
2020/12/08 03:28:31;;;;;;;26.38;15.35;;;;;;;0.07;98.46;98914.81;6129170;23;20013;-73
2020/12/08 03:30:56;;;;;;;23.77;15.35;;;;;;;0.09;98.49;98918.09;6128182;23;20057;-73
2020/12/08 03:33:22;;;;;;;25.75;15.48;;;;;;;0.10;98.49;98927.94;6129908;23;20331;-73
2020/12/08 03:35:47;;;;;;;23.88;14.65;;;;;;;0.11;98.35;98918.66;6129606;23;20014;-73
2020/12/08 03:38:13;;;;;;;25.40;15.45;;;;;;;0.10;98.38;98918.91;6130668;23;20010;-73
2020/12/08 03:40:39;;;;;;;24.15;15.25;;;;;;;0.10;98.21;98919.72;6104228;23;20070;-73
2020/12/08 03:43:05;;;;;;;27.75;15.82;;;;;;;0.10;98.00;98930.66;6130254;23;20006;-73
2020/12/08 03:45:31;;;;;;;24.33;15.05;;;;;;;0.11;98.25;98929.59;6130263;23;20424;-73
2020/12/08 03:47:56;;;;;;;41.35;23.33;;;;;;;0.14;98.14;98934.50;6104550;23;20085;-73
2020/12/08 03:50:22;;;;;;;86.75;41.92;;;;;;;0.13;98.19;98935.59;6130127;23;20065;-73
2020/12/08 03:52:47;;;;;;;142.35;61.80;;;;;;;0.13;98.02;98935.59;6128287;23;20065;-73
2020/12/08 03:55:13;;;;;;;169.93;76.28;;;;;;;0.11;98.08;98942.38;6129819;23;20327;-73
2020/12/08 03:57:39;;;;;;;205.32;87.97;;;;;;;0.09;97.96;98941.84;6130537;23;20010;-73
2020/12/08 04:00:07;;;;;;;212.13;92.82;;;;;;;0.07;97.85;98958.47;6130132;23;20009;-73
2020/12/08 04:02:34;;;;;;;221.95;98.65;;;;;;;0.05;97.80;98960.66;6128674;23;20037;-73
2020/12/08 04:04:59;;;;;;;215.98;93.95;;;;;;;0.04;97.50;98967.19;6130049;23;20510;-73
2020/12/08 04:07:25;;;;;;;207.10;91.35;;;;;;;0.01;97.51;98965.00;6128781;23;20014;-73
2020/12/08 04:09:50;;;;;;;205.48;91.22;;;;;;;0.02;97.54;98965.81;6129630;23;20006;-73
2020/12/08 04:12:16;;;;;;;213.60;94.22;;;;;;;-0.02;97.58;98970.97;6128689;23;20021;-73
2020/12/08 04:14:42;;;;;;;206.98;92.05;;;;;;;-0.03;97.72;98972.06;6130023;23;20002;-73
2020/12/08 04:17:07;;;;;;;190.88;83.85;;;;;;;-0.03;97.83;98964.72;6130392;23;20013;-73
2020/12/08 04:19:33;;;;;;;194.20;86.40;;;;;;;-0.02;98.01;98976.44;6130429;23;20382;-73
2020/12/08 04:21:59;;;;;;;182.02;81.32;;;;;;;-0.02;97.86;98976.44;6129564;23;20502;-73
2020/12/08 04:24:25;;;;;;;186.55;81.35;;;;;;;-0.02;97.84;98973.72;6128074;23;20136;-73
2020/12/08 04:26:51;;;;;;;179.63;78.80;;;;;;;-0.01;98.10;98975.34;6181596;23;20350;-74
2020/12/08 04:29:16;;;;;;;174.20;74.65;;;;;;;0.00;98.09;98982.47;6158261;23;20016;-73
2020/12/08 04:31:42;;;;;;;168.48;73.50;;;;;;;0.02;98.04;98983.00;6157325;23;20010;-73
2020/12/08 04:34:07;;;;;;;164.10;74.32;;;;;;;0.04;98.18;98989.03;6159254;23;20013;-73
2020/12/08 04:36:33;;;;;;;173.77;74.93;;;;;;;0.05;98.23;98993.41;6159491;23;20010;-73
2020/12/08 04:38:58;;;;;;;165.25;74.10;;;;;;;0.06;98.33;99000.53;6182434;23;20006;-73
2020/12/08 04:41:24;;;;;;;158.50;70.60;;;;;;;0.08;98.42;98997.50;6158007;23;20005;-73
2020/12/08 04:43:51;;;;;;;159.82;69.47;;;;;;;0.10;98.43;98998.91;6159380;23;20017;-73
2020/12/08 04:46:18;;;;;;;155.88;69.38;;;;;;;0.13;98.40;99000.28;6161155;23;20005;-73
2020/12/08 04:48:43;;;;;;;139.93;61.95;;;;;;;0.14;98.39;98997.31;6159848;23;20016;-73
2020/12/08 04:51:09;;;;;;;129.70;59.45;;;;;;;0.16;98.37;99016.94;6159347;23;20005;-73
2020/12/08 04:53:34;;;;;;;139.40;61.65;;;;;;;0.18;98.40;99011.25;6159666;23;20006;-73
2020/12/08 04:56:00;;;;;;;138.18;60.67;;;;;;;0.19;98.32;99005.50;6160999;23;20009;-73
2020/12/08 04:58:26;;;;;;;128.00;58.47;;;;;;;0.19;98.37;99008.25;6161423;23;20320;-73
2020/12/08 05:00:51;;;;;;;133.57;59.13;;;;;;;0.22;98.36;99015.94;6159556;23;20007;-73
2020/12/08 05:03:24;;;;;;;120.68;54.70;;;;;;;0.21;98.27;99018.91;6159545;23;20009;-73
2020/12/08 05:05:49;;;;;;;113.72;52.92;;;;;;;0.20;98.13;99023.56;6159404;23;20077;-73
2020/12/08 05:08:15;;;;;;;112.00;49.75;;;;;;;0.20;98.19;99022.72;6160015;23;20012;-73
2020/12/08 05:10:41;;;;;;;105.20;48.92;;;;;;;0.19;97.90;99038.28;6158895;23;20570;-73
2020/12/08 05:13:27;;;;;;;104.22;47.65;;;;;;;0.18;97.91;99036.63;6160850;23;20427;-73
2020/12/08 05:16:02;;;;;;;104.90;46.95;;;;;;;0.16;97.75;99038.78;6160466;23;20431;-73
2020/12/08 05:18:28;;;;;;;97.70;44.42;;;;;;;0.14;97.83;99041.00;6161187;23;20087;-73
2020/12/08 05:20:54;;;;;;;87.82;41.40;;;;;;;0.13;97.85;99049.44;6159337;23;20005;-73
2020/12/08 05:23:19;;;;;;;88.75;40.90;;;;;;;0.10;97.63;99056.22;6160933;23;20087;-73
2020/12/08 05:25:46;;;;;;;87.25;40.95;;;;;;;0.08;97.79;99058.38;6143384;23;20017;-73
2020/12/08 05:28:18;;;;;;;83.90;38.97;;;;;;;0.06;97.59;99070.69;6130153;23;20046;-73
2020/12/08 05:30:44;;;;;;;79.83;36.60;;;;;;;0.04;97.75;99065.47;6129452;23;20033;-73
2020/12/08 05:33:09;;;;;;;76.82;37.75;;;;;;;0.03;97.53;99063.84;6105247;23;20376;-73
2020/12/08 05:35:35;;;;;;;74.80;36.42;;;;;;;0.01;97.51;99076.09;6104781;23;20081;-73
2020/12/08 05:38:03;;;;;;;77.18;37.67;;;;;;;-0.01;97.68;99070.88;6131498;23;20061;-73
2020/12/08 05:40:29;;;;;;;76.35;34.97;;;;;;;-0.02;97.80;99080.97;6105508;23;20057;-73
2020/12/08 05:42:55;;;;;;;77.25;35.90;;;;;;;0.01;97.89;99078.81;6130712;23;20006;-73
2020/12/08 05:45:21;;;;;;;71.05;33.70;;;;;;;0.01;97.89;99089.75;6105266;23;20010;-73
2020/12/08 05:47:52;;;;;;;66.85;32.22;;;;;;;0.01;98.21;99084.28;6131188;23;20017;-73
2020/12/08 05:50:19;;;;;;;69.70;33.65;;;;;;;0.03;98.01;99087.56;6131235;23;20014;-73
2020/12/08 05:52:55;;;;;;;68.55;33.13;;;;;;;0.03;98.21;99099.31;6130680;23;20013;-73
2020/12/08 05:55:22;;;;;;;65.85;32.88;;;;;;;0.05;98.33;99101.78;6128915;23;20017;-73
2020/12/08 05:57:48;;;;;;;64.38;32.67;;;;;;;0.07;98.29;99107.81;6129749;23;20013;-73
2020/12/08 06:00:27;;;;;;;69.15;31.05;;;;;;;0.08;98.27;99106.72;6129829;23;20001;-74
2020/12/08 06:02:54;;;;;;;65.47;30.92;;;;;;;0.08;98.40;99118.44;6129721;23;20053;-73
2020/12/08 06:05:29;;;;;;;62.30;31.75;;;;;;;0.11;98.32;99122.56;6129530;23;20439;-73
2020/12/08 06:07:55;;;;;;;63.75;31.17;;;;;;;0.14;98.34;99122.91;6129351;23;20014;-73
2020/12/08 06:10:20;;;;;;;61.15;30.42;;;;;;;0.15;98.18;99123.72;6128979;23;20017;-73
2020/12/08 06:13:04;;;;;;;57.10;29.20;;;;;;;0.15;98.42;99124.53;6129779;23;20014;-73
2020/12/08 06:15:39;;;;;;;65.25;31.35;;;;;;;0.17;98.45;99127.84;6130755;23;20009;-73
2020/12/08 06:18:05;;;;;;;58.75;29.80;;;;;;;0.17;98.27;99127.84;6130687;23;20436;-73
2020/12/08 06:20:31;;;;;;;57.38;28.95;;;;;;;0.18;98.38;99129.47;6129041;23;20013;-73
2020/12/08 06:22:57;;;;;;;57.13;28.48;;;;;;;0.18;98.23;99129.47;6130925;23;20010;-73
2020/12/08 06:25:23;;;;;;;58.40;28.10;;;;;;;0.20;98.16;99140.16;6104647;23;20448;-73
2020/12/08 06:27:49;;;;;;;51.95;27.05;;;;;;;0.21;98.11;99141.78;6130660;23;20009;-73
2020/12/08 06:30:19;;;;;;;53.15;26.17;;;;;;;0.21;98.28;99142.59;6128295;23;20037;-74
2020/12/08 06:32:45;;;;;;;46.40;25.08;;;;;;;0.21;98.43;99158.16;6130826;23;20012;-73
2020/12/08 06:35:12;;;;;;;49.45;25.73;;;;;;;0.21;98.40;99158.97;6129147;23;20014;-73
2020/12/08 06:37:52;;;;;;;58.10;28.83;;;;;;;0.24;98.30;99162.28;6128794;23;20006;-73
2020/12/08 06:40:18;;;;;;;50.20;26.80;;;;;;;0.24;98.28;99165.84;6130161;23;20044;-74
2020/12/08 06:42:47;;;;;;;52.78;27.52;;;;;;;0.24;98.47;99174.03;6130816;23;20454;-73
2020/12/08 06:45:14;;;;;;;52.70;27.45;;;;;;;0.26;98.52;99163.69;6129278;23;20070;-73
2020/12/08 06:47:40;;;;;;;52.17;26.67;;;;;;;0.27;98.36;99156.31;6153568;23;20010;-74
2020/12/08 06:50:06;;;;;;;52.92;27.58;;;;;;;0.28;98.64;99152.47;6128527;23;20343;-74
2020/12/08 06:52:33;;;;;;;48.22;26.70;;;;;;;0.30;98.31;99158.50;6129111;23;20010;-74
2020/12/08 06:55:00;;;;;;;49.00;25.48;;;;;;;0.30;98.49;99164.78;6104870;23;20414;-74
2020/12/08 06:57:25;;;;;;;51.55;27.25;;;;;;;0.32;98.47;99170.81;6129041;23;20014;-73
2020/12/08 07:00:05;;;;;;;46.08;25.17;;;;;;;0.34;98.52;99181.50;6153616;23;20013;-73
2020/12/08 07:02:31;;;;;;;49.80;25.98;;;;;;;0.36;98.83;99191.09;6129159;23;20060;-74
2020/12/08 07:05:00;;;;;;;49.20;26.40;;;;;;;0.36;99.14;99191.09;6105180;23;20005;-73
2020/12/08 07:07:27;;;;;;;45.05;25.48;;;;;;;0.38;98.76;99186.16;6104533;23;20014;-72
2020/12/08 07:09:52;;;;;;;45.70;24.45;;;;;;;0.41;99.01;99191.09;6104410;23;20010;-74
2020/12/08 07:12:18;;;;;;;39.55;23.05;;;;;;;0.44;98.90;99187.03;6104536;23;20013;-74
2020/12/08 07:14:43;;;;;;;45.72;24.92;;;;;;;0.47;98.78;99186.50;6129376;23;20010;-73
2020/12/08 07:17:09;;;;;;;42.90;24.92;;;;;;;0.51;99.03;99193.13;6104228;23;20013;-74
2020/12/08 07:19:35;;;;;;;41.53;22.92;;;;;;;0.52;99.04;99194.75;6104692;23;20002;-74
2020/12/08 07:22:01;;;;;;;39.42;21.90;;;;;;;0.55;99.11;99205.16;6104213;23;20005;-74
2020/12/08 07:24:27;;;;;;;42.20;22.60;;;;;;;0.58;99.13;99201.91;6104398;23;20024;-74
2020/12/08 07:27:00;;;;;;;39.70;22.10;;;;;;;0.60;99.19;99210.66;6181493;23;20026;-74
2020/12/08 07:29:26;;;;;;;35.75;21.42;;;;;;;0.63;99.34;99223.00;6134112;23;20033;-74
2020/12/08 07:31:52;;;;;;;37.22;21.38;;;;;;;0.64;99.15;99219.16;6158234;23;20009;-73
2020/12/08 07:34:17;;;;;;;36.67;21.67;;;;;;;0.66;99.01;99223.28;6158306;23;20005;-75
2020/12/08 07:36:43;;;;;;;34.78;20.33;;;;;;;0.69;98.99;99227.41;6158201;23;20005;-74
2020/12/08 07:39:19;;;;;;;37.33;21.85;;;;;;;0.70;98.84;99229.06;6133113;23;20039;-74
2020/12/08 07:41:44;;;;;;;39.42;21.63;;;;;;;0.72;98.95;99237.00;6133635;23;20088;-74
2020/12/08 07:44:14;;;;;;;35.15;20.80;;;;;;;0.74;98.98;99245.78;6133924;23;20013;-74
2020/12/08 07:46:51;;;;;;;38.33;21.55;;;;;;;0.75;98.90;99255.59;6158753;23;20335;-74
2020/12/08 07:49:17;;;;;;;38.60;21.02;;;;;;;0.74;98.83;99248.50;6158008;23;20037;-74
2020/12/08 07:51:43;;;;;;;34.90;20.05;;;;;;;0.74;98.82;99260.25;6133414;23;20006;-74
2020/12/08 07:54:08;;;;;;;35.80;20.75;;;;;;;0.74;98.87;99253.97;6182588;23;20016;-74
2020/12/08 07:56:37;;;;;;;36.72;20.13;;;;;;;0.76;98.76;99268.22;6158542;23;20005;-74
2020/12/08 07:59:06;;;;;;;33.38;19.52;;;;;;;0.73;98.72;99263.25;6133660;23;20011;-74
2020/12/08 08:01:42;;;;;;;32.10;18.10;;;;;;;0.73;98.63;99277.75;6159624;23;20006;-74
2020/12/08 08:04:08;;;;;;;32.97;19.27;;;;;;;0.71;98.69;99287.28;6158138;23;20009;-74
2020/12/08 08:06:34;;;;;;;31.83;18.67;;;;;;;0.69;98.75;99286.72;6133783;23;20001;-74
2020/12/08 08:08:59;;;;;;;32.60;18.88;;;;;;;0.68;98.58;99296.81;6158092;23;20052;-75
2020/12/08 08:11:25;;;;;;;32.28;18.70;;;;;;;0.66;98.58;99301.72;6159328;23;20438;-74
2020/12/08 08:13:50;;;;;;;32.70;18.23;;;;;;;0.63;98.50;99300.31;6133630;23;20327;-74
2020/12/08 08:16:16;;;;;;;30.80;17.77;;;;;;;0.62;98.49;99306.88;6158388;23;20013;-74
2020/12/08 08:18:42;;;;;;;32.13;18.42;;;;;;;0.59;98.37;99312.88;6158796;23;20041;-74
2020/12/08 08:21:07;;;;;;;31.85;18.45;;;;;;;0.57;98.46;99317.75;6135140;23;20008;-74
2020/12/08 08:23:34;;;;;;;30.27;17.52;;;;;;;0.55;98.42;99327.28;6161639;23;20037;-74
2020/12/08 08:25:59;;;;;;;29.20;18.15;;;;;;;0.52;98.33;99325.88;6117538;23;20014;-74
2020/12/08 08:28:25;;;;;;;32.90;19.23;;;;;;;0.51;98.34;99323.44;6106088;23;20013;-74
2020/12/08 08:30:51;;;;;;;29.65;17.85;;;;;;;0.49;98.47;99331.06;6104489;23;20010;-74
2020/12/08 08:33:17;;;;;;;29.60;17.67;;;;;;;0.48;98.60;99335.69;6129537;23;20014;-74
2020/12/08 08:35:43;;;;;;;31.05;17.48;;;;;;;0.48;98.51;99330.22;6105570;23;20045;-74
2020/12/08 08:38:08;;;;;;;34.38;19.08;;;;;;;0.51;98.76;99334.34;6105869;23;20013;-74
2020/12/08 08:40:34;;;;;;;31.40;17.45;;;;;;;0.55;98.93;99336.31;6130993;23;20002;-74
2020/12/08 08:43:00;;;;;;;30.88;17.85;;;;;;;0.59;99.02;99336.63;6130336;23;20020;-74
2020/12/08 08:45:25;;;;;;;34.47;19.45;;;;;;;0.63;99.15;99332.28;6105688;23;20016;-74
2020/12/08 08:47:51;;;;;;;31.45;17.60;;;;;;;0.68;99.27;99345.19;6105741;23;20013;-74
2020/12/08 08:50:17;;;;;;;31.98;18.25;;;;;;;0.74;99.47;99355.91;6105254;23;20021;-74
2020/12/08 08:52:42;;;;;;;33.95;18.58;;;;;;;0.80;99.49;99357.59;6131656;23;20041;-74
2020/12/08 08:55:10;;;;;;;30.55;17.25;;;;;;;0.84;99.33;99360.66;6131599;23;20013;-74
2020/12/08 08:57:38;;;;;;;26.48;16.48;;;;;;;0.88;99.33;99364.53;6082186;23;20010;-74
2020/12/08 09:00:08;;;;;;;30.35;17.85;;;;;;;0.93;99.50;99374.69;6129981;23;20002;-74
2020/12/08 09:02:34;;;;;;;26.90;16.15;;;;;;;0.97;99.28;99379.34;6130198;23;20069;-74
2020/12/08 09:04:59;;;;;;;26.80;17.15;;;;;;;1.00;99.19;99376.09;6105978;23;20010;-74
2020/12/08 09:07:26;;;;;;;32.72;18.17;;;;;;;1.06;99.04;99382.47;6129840;23;20010;-73
2020/12/08 09:09:52;;;;;;;27.85;16.38;;;;;;;1.13;98.85;99385.00;6131251;23;20002;-74
2020/12/08 09:12:17;;;;;;;28.45;16.83;;;;;;;1.20;99.02;99380.13;6129719;23;20006;-74
2020/12/08 09:14:43;;;;;;;26.73;15.52;;;;;;;1.28;98.72;99385.09;6082175;23;20010;-74
2020/12/08 09:17:09;;;;;;;26.98;16.25;;;;;;;1.35;98.56;99366.59;6105749;23;20084;-74
2020/12/08 09:19:34;;;;;;;27.40;16.52;;;;;;;1.45;98.51;99374.03;6105784;23;20006;-74
2020/12/08 09:22:00;;;;;;;25.85;16.13;;;;;;;1.52;98.78;99372.72;6129415;23;20012;-74
2020/12/08 09:24:25;;;;;;;27.73;15.98;;;;;;;1.60;98.94;99376.06;6129859;23;20024;-74
2020/12/08 09:26:51;;;;;;;26.02;16.25;;;;;;;1.68;99.04;99375.59;6129866;23;20018;-74
2020/12/08 09:29:17;;;;;;;26.80;16.52;;;;;;;1.77;99.22;99377.56;6105236;23;20006;-74
2020/12/08 09:31:42;;;;;;;24.83;16.13;;;;;;;1.88;98.84;99381.19;6128654;23;20010;-74
2020/12/08 09:34:08;;;;;;;23.77;15.80;;;;;;;1.97;98.61;99384.25;6129998;23;20006;-74
2020/12/08 09:36:34;;;;;;;25.90;16.55;;;;;;;2.06;98.72;99370.88;6105453;23;20002;-74
2020/12/08 09:39:00;;;;;;;27.95;16.75;;;;;;;2.18;98.74;99387.94;6104936;23;20014;-74
2020/12/08 09:41:26;;;;;;;27.85;16.88;;;;;;;2.29;98.84;99392.38;6105233;23;20069;-74
2020/12/08 09:43:52;;;;;;;25.27;16.50;;;;;;;2.40;98.92;99413.25;6105684;23;20006;-74
2020/12/08 09:46:17;;;;;;;25.38;15.90;;;;;;;2.51;98.92;99413.28;6105130;23;20002;-74
2020/12/08 09:48:43;;;;;;;22.75;14.90;;;;;;;2.61;98.74;99421.53;6105304;23;20013;-74
2020/12/08 09:51:09;;;;;;;26.60;18.88;;;;;;;2.71;98.62;99432.56;6104733;23;20013;-74
2020/12/08 09:53:34;;;;;;;26.27;15.50;;;;;;;2.80;98.23;99433.69;6130011;23;20016;-74
2020/12/08 09:56:00;;;;;;;25.15;15.15;;;;;;;2.89;98.13;99445.78;6104901;23;20313;-74
2020/12/08 09:58:26;;;;;;;22.80;15.07;;;;;;;3.00;97.83;99443.88;6104965;23;20059;-74
2020/12/08 10:00:51;;;;;;;27.33;15.88;;;;;;;3.08;97.57;99437.06;6129591;23;20016;-74
2020/12/08 10:03:17;;;;;;;25.85;17.05;;;;;;;3.18;97.47;99442.56;6129793;23;20010;-74
2020/12/08 10:05:42;;;;;;;26.48;16.88;;;;;;;3.25;97.30;99445.84;6129168;23;20005;-74
2020/12/08 10:08:08;;;;;;;26.33;16.25;;;;;;;3.34;97.18;99448.88;6105015;23;20017;-74
2020/12/08 10:10:34;;;;;;;23.00;15.02;;;;;;;3.45;97.24;99452.47;6128656;23;20502;-74
2020/12/08 10:13:00;;;;;;;23.45;15.15;;;;;;;3.53;97.06;99461.00;6131218;23;20335;-74
2020/12/08 10:15:26;;;;;;;22.88;15.15;;;;;;;3.63;96.63;99465.69;6104761;23;20025;-74
2020/12/08 10:17:52;;;;;;;23.80;14.82;;;;;;;3.72;96.51;99464.03;6129534;23;20017;-74
2020/12/08 10:20:18;;;;;;;23.83;15.60;;;;;;;3.80;96.28;99466.22;6128980;23;20331;-74
2020/12/08 10:22:44;;;;;;;23.73;15.30;;;;;;;3.89;95.91;99468.44;6129613;23;20008;-74
2020/12/08 10:25:09;;;;;;;24.00;15.52;;;;;;;3.97;95.93;99463.19;6138914;23;20450;-74
2020/12/08 10:27:35;;;;;;;24.08;16.15;;;;;;;4.05;95.84;99466.50;6133899;23;20012;-74
2020/12/08 10:30:02;;;;;;;26.23;16.00;;;;;;;4.13;95.86;99465.94;6133284;23;20060;-74
2020/12/08 10:32:28;;;;;;;24.88;15.68;;;;;;;4.20;95.72;99467.28;6134562;23;20025;-74
2020/12/08 10:34:53;;;;;;;23.65;15.98;;;;;;;4.28;95.59;99471.41;6109823;23;20006;-75
2020/12/08 10:37:19;;;;;;;26.23;16.35;;;;;;;4.36;95.45;99468.09;6132778;23;20005;-74
2020/12/08 10:39:45;;;;;;;25.75;16.30;;;;;;;4.45;95.49;99476.59;6158323;23;20002;-74
2020/12/08 10:42:10;;;;;;;23.25;15.88;;;;;;;4.52;95.59;99482.63;6133956;23;20006;-74
2020/12/08 10:44:36;;;;;;;24.90;15.80;;;;;;;4.58;95.44;99473.25;6158734;23;20018;-74
2020/12/08 10:47:01;;;;;;;23.67;15.48;;;;;;;4.62;95.38;99471.56;6160031;23;20060;-74
2020/12/08 10:49:27;;;;;;;25.38;15.95;;;;;;;4.66;95.11;99478.19;6133887;23;20011;-74
2020/12/08 10:51:52;;;;;;;24.00;16.10;;;;;;;4.69;95.09;99476.78;6134153;23;20006;-74
2020/12/08 10:54:18;;;;;;;22.08;14.95;;;;;;;4.73;94.74;99475.13;6158377;23;20006;-74
2020/12/08 10:56:44;;;;;;;27.60;16.77;;;;;;;4.77;94.95;99487.22;6108607;23;20009;-74
2020/12/08 10:59:09;;;;;;;24.60;15.55;;;;;;;4.83;94.78;99488.03;6159456;23;20017;-74
2020/12/08 11:01:35;;;;;;;22.17;15.82;;;;;;;4.87;94.75;99494.59;6134260;23;20009;-74
2020/12/08 11:04:01;;;;;;;24.70;16.13;;;;;;;4.93;94.86;99487.97;6158830;23;20418;-74
2020/12/08 11:06:27;;;;;;;25.02;15.27;;;;;;;4.99;94.64;99483.28;6159441;23;20501;-74
2020/12/08 11:08:53;;;;;;;23.58;15.88;;;;;;;5.04;94.71;99483.25;6133739;23;20013;-75
2020/12/08 11:11:28;;;;;;;22.70;15.07;;;;;;;5.09;94.46;99494.22;6134018;23;20013;-74
2020/12/08 11:13:54;;;;;;;19.23;14.27;;;;;;;5.15;94.48;99496.69;6158894;23;20015;-74
2020/12/08 11:16:20;;;;;;;22.42;14.07;;;;;;;5.18;94.23;99494.47;6133607;23;20435;-74
2020/12/08 11:18:46;;;;;;;24.15;14.63;;;;;;;5.21;94.09;99504.91;6158410;23;20215;-74